createdAt,value
2022-11-17T00:00:58.014Z,939.84
2022-11-17T00:03:56.905Z,939.79
2022-11-17T00:06:57.003Z,939.79
2022-11-17T00:09:57.819Z,939.77
2022-11-17T00:12:56.984Z,939.7
2022-11-17T00:15:56.963Z,939.63
2022-11-17T00:18:57.692Z,939.64
2022-11-17T00:21:57.443Z,939.47
2022-11-17T00:24:56.879Z,939.5
2022-11-17T00:27:57.199Z,939.44
2022-11-17T00:31:12.663Z,939.39
2022-11-17T00:33:57.072Z,939.41
2022-11-17T00:36:57.395Z,939.32
2022-11-17T00:40:00.711Z,939.21
2022-11-17T00:42:57.701Z,939.34
2022-11-17T00:45:56.736Z,939.38
2022-11-17T00:48:57.564Z,939.34
2022-11-17T00:51:56.486Z,939.29
2022-11-17T00:54:57.114Z,939.26
2022-11-17T00:57:57.324Z,939.13
2022-11-17T01:00:58.063Z,939.09
2022-11-17T01:03:58.012Z,939.11
2022-11-17T01:06:57.101Z,939.09
2022-11-17T01:09:57.215Z,939.07
2022-11-17T01:12:57.668Z,939.01
2022-11-17T01:15:57.235Z,938.88
2022-11-17T01:18:57.208Z,938.99
2022-11-17T01:21:57.045Z,938.96
2022-11-17T01:24:57.176Z,938.96
2022-11-17T01:27:57.694Z,938.78
2022-11-17T01:30:59.758Z,938.68
2022-11-17T01:33:57.030Z,938.75
2022-11-17T01:36:57.843Z,938.65
2022-11-17T01:39:57.838Z,938.73
2022-11-17T01:42:57.485Z,938.8
2022-11-17T01:45:57.069Z,938.75
2022-11-17T01:48:56.733Z,938.74
2022-11-17T01:51:56.669Z,938.84
2022-11-17T01:54:57.281Z,938.89
2022-11-17T01:57:57.686Z,938.75
2022-11-17T02:00:58.069Z,938.69
2022-11-17T02:03:57.196Z,938.62
2022-11-17T02:06:57.720Z,938.5
2022-11-17T02:09:57.422Z,938.53
2022-11-17T02:12:58.088Z,938.46
2022-11-17T02:15:56.744Z,938.45
2022-11-17T02:18:57.189Z,938.41
2022-11-17T02:21:57.999Z,938.4
2022-11-17T02:24:57.896Z,938.38
2022-11-17T02:27:57.158Z,938.19
2022-11-17T02:30:57.833Z,938.27
2022-11-17T02:33:57.816Z,938.27
2022-11-17T02:36:57.692Z,938.19
2022-11-17T02:39:57.704Z,938.07
2022-11-17T02:42:57.831Z,938.0
2022-11-17T02:45:57.304Z,937.94
2022-11-17T02:48:57.508Z,937.86
2022-11-17T02:51:57.528Z,937.79
2022-11-17T02:54:57.648Z,937.72
2022-11-17T02:57:56.947Z,937.62
2022-11-17T03:00:57.711Z,937.53
2022-11-17T03:03:56.686Z,937.47
2022-11-17T03:06:56.827Z,937.5
2022-11-17T03:09:57.410Z,937.46
2022-11-17T03:12:57.482Z,937.4
2022-11-17T03:15:57.339Z,937.29
2022-11-17T03:18:56.846Z,937.21
2022-11-17T03:21:57.587Z,937.18
2022-11-17T03:24:57.230Z,937.19
2022-11-17T03:27:57.186Z,937.09
2022-11-17T03:30:59.004Z,937.07
2022-11-17T03:33:57.118Z,937.12
2022-11-17T03:36:57.166Z,937.11
2022-11-17T03:39:57.293Z,936.75
2022-11-17T03:42:56.965Z,936.63
2022-11-17T03:45:57.173Z,936.56
2022-11-17T03:48:57.581Z,936.6
2022-11-17T03:51:57.007Z,936.64
2022-11-17T03:54:57.340Z,936.83
2022-11-17T03:57:56.725Z,936.93
2022-11-17T04:00:57.255Z,936.96
2022-11-17T04:03:57.572Z,937.06
2022-11-17T04:06:57.292Z,937.0
2022-11-17T04:09:57.152Z,937.07
2022-11-17T04:12:56.742Z,937.15
2022-11-17T04:15:57.573Z,937.2
2022-11-17T04:18:58.965Z,937.26
2022-11-17T04:21:57.664Z,937.19
2022-11-17T04:24:57.444Z,937.29
2022-11-17T04:27:57.419Z,937.42
2022-11-17T04:30:57.312Z,937.54
2022-11-17T04:33:56.876Z,937.5
2022-11-17T04:36:57.571Z,937.56
2022-11-17T04:39:57.282Z,937.77
2022-11-17T04:42:57.415Z,937.54
2022-11-17T04:45:57.618Z,937.33
2022-11-17T04:48:58.064Z,937.26
2022-11-17T04:51:57.171Z,937.14
2022-11-17T04:54:57.261Z,937.05
2022-11-17T04:57:57.536Z,937.07
2022-11-17T05:00:57.957Z,937.04
2022-11-17T05:03:57.714Z,937.02
2022-11-17T05:06:57.041Z,936.98
2022-11-17T05:09:57.297Z,936.99
2022-11-17T05:12:58.108Z,936.82
2022-11-17T05:15:57.862Z,936.81
2022-11-17T05:18:57.272Z,936.8
2022-11-17T05:21:57.597Z,936.86
2022-11-17T05:24:57.371Z,936.83
2022-11-17T05:27:57.712Z,936.93
2022-11-17T05:30:57.667Z,936.87
2022-11-17T05:33:57.749Z,936.72
2022-11-17T05:36:57.174Z,936.85
2022-11-17T05:39:57.311Z,936.78
2022-11-17T05:42:57.295Z,936.96
2022-11-17T05:45:57.437Z,937.02
2022-11-17T05:48:57.732Z,936.96
2022-11-17T05:51:57.954Z,937.02
2022-11-17T05:54:57.996Z,936.98
2022-11-17T05:57:57.562Z,937.02
2022-11-17T06:00:57.903Z,936.9
2022-11-17T06:03:57.177Z,936.96
2022-11-17T06:06:57.224Z,937.0
2022-11-17T06:09:57.500Z,937.05
2022-11-17T06:12:57.599Z,936.88
2022-11-17T06:15:57.369Z,937.0
2022-11-17T06:18:57.419Z,936.87
2022-11-17T06:22:11.803Z,936.93
2022-11-17T06:24:57.320Z,936.96
2022-11-17T06:27:57.388Z,936.89
2022-11-17T06:30:57.520Z,936.92
2022-11-17T06:33:57.097Z,936.99
2022-11-17T06:36:57.743Z,937.06
2022-11-17T06:39:56.909Z,937.16
2022-11-17T06:42:57.013Z,937.17
2022-11-17T06:45:56.830Z,937.17
2022-11-17T06:48:56.863Z,937.09
2022-11-17T06:51:57.086Z,936.98
2022-11-17T06:54:57.516Z,937.09
2022-11-17T06:57:57.591Z,937.11
2022-11-17T07:00:58.177Z,937.3
2022-11-17T07:03:57.313Z,937.36
2022-11-17T07:06:57.718Z,937.22
2022-11-17T07:09:57.748Z,937.26
2022-11-17T07:12:57.157Z,937.27
2022-11-17T07:15:57.870Z,937.27
2022-11-17T07:18:56.933Z,937.07
2022-11-17T07:21:57.841Z,937.11
2022-11-17T07:24:57.541Z,937.22
2022-11-17T07:27:57.759Z,937.2
2022-11-17T07:30:57.961Z,937.28
2022-11-17T07:33:57.390Z,937.16
2022-11-17T07:36:57.573Z,937.18
2022-11-17T07:39:57.535Z,937.19
2022-11-17T07:42:57.916Z,937.11
2022-11-17T07:45:57.017Z,937.09
2022-11-17T07:48:56.827Z,936.99
2022-11-17T07:51:57.804Z,937.08
2022-11-17T07:54:57.880Z,936.86
2022-11-17T07:57:57.009Z,936.94
2022-11-17T08:00:57.709Z,936.87
2022-11-17T08:03:57.393Z,936.95
2022-11-17T08:06:57.568Z,937.01
2022-11-17T08:09:57.681Z,937.05
2022-11-17T08:12:57.498Z,937.02
2022-11-17T08:15:57.361Z,936.95
2022-11-17T08:18:57.221Z,937.01
2022-11-17T08:21:57.867Z,937.03
2022-11-17T08:24:56.929Z,936.96
2022-11-17T08:27:57.118Z,936.95
2022-11-17T08:30:57.817Z,936.96
2022-11-17T08:33:57.374Z,936.88
2022-11-17T08:36:57.085Z,936.9
2022-11-17T08:39:57.639Z,937.11
2022-11-17T08:43:01.006Z,937.1
2022-11-17T08:45:57.088Z,937.13
2022-11-17T08:48:57.473Z,937.13
2022-11-17T08:51:57.983Z,937.03
2022-11-17T08:54:57.891Z,937.02
2022-11-17T08:57:57.719Z,936.95
2022-11-17T09:01:03.818Z,936.96
2022-11-17T09:03:57.753Z,937.03
2022-11-17T09:06:57.617Z,937.06
2022-11-17T09:09:57.421Z,937.04
2022-11-17T09:12:56.987Z,937.02
2022-11-17T09:15:56.907Z,937.05
2022-11-17T09:18:56.814Z,937.0
2022-11-17T09:21:57.161Z,937.03
2022-11-17T09:24:57.856Z,937.08
2022-11-17T09:27:57.036Z,937.24
2022-11-17T09:30:59.204Z,937.28
2022-11-17T09:33:59.424Z,937.43
2022-11-17T09:36:57.710Z,937.44
2022-11-17T09:39:57.598Z,937.47
2022-11-17T09:42:59.211Z,937.5
2022-11-17T09:45:57.503Z,937.5
2022-11-17T09:48:57.475Z,937.55
2022-11-17T09:51:57.820Z,937.55
2022-11-17T09:54:58.751Z,937.59
2022-11-17T09:57:57.190Z,937.62
2022-11-17T10:00:57.935Z,937.66
2022-11-17T10:03:56.724Z,937.72
2022-11-17T10:06:56.956Z,937.63
2022-11-17T10:09:57.314Z,937.69
2022-11-17T10:12:57.334Z,937.72
2022-11-17T10:15:57.431Z,937.63
2022-11-17T10:18:57.695Z,937.63
2022-11-17T10:21:57.950Z,937.84
2022-11-17T10:24:56.946Z,937.81
2022-11-17T10:27:57.409Z,937.69
2022-11-17T10:30:58.207Z,937.7
2022-11-17T10:33:57.079Z,937.65
2022-11-17T10:36:57.480Z,937.57
2022-11-17T10:39:57.355Z,937.68
2022-11-17T10:42:56.925Z,937.61
2022-11-17T10:45:58.232Z,937.61
2022-11-17T10:48:57.631Z,937.46
2022-11-17T10:51:57.271Z,937.58
2022-11-17T10:54:57.310Z,937.66
2022-11-17T10:57:57.118Z,937.64
2022-11-17T11:00:58.198Z,937.64
2022-11-17T11:04:15.845Z,937.57
2022-11-17T11:06:58.014Z,937.54
2022-11-17T11:09:57.308Z,937.55
2022-11-17T11:12:57.228Z,937.64
2022-11-17T11:15:57.260Z,937.53
2022-11-17T11:18:57.051Z,937.51
2022-11-17T11:21:57.077Z,937.46
2022-11-17T11:24:57.618Z,937.36
2022-11-17T11:27:57.737Z,937.35
2022-11-17T11:30:57.311Z,937.4
2022-11-17T11:33:57.246Z,937.48
2022-11-17T11:36:57.631Z,937.57
2022-11-17T11:39:57.579Z,937.47
2022-11-17T11:42:56.828Z,937.51
2022-11-17T11:45:57.293Z,937.49
2022-11-17T11:48:57.116Z,937.46
2022-11-17T11:51:57.284Z,937.42
2022-11-17T11:54:57.087Z,937.31
2022-11-17T11:57:57.300Z,937.35
2022-11-17T12:00:58.231Z,937.37
2022-11-17T12:03:57.202Z,937.37
2022-11-17T12:06:57.885Z,937.42
2022-11-17T12:09:57.176Z,937.34
2022-11-17T12:12:57.357Z,937.31
2022-11-17T12:15:57.624Z,937.37
2022-11-17T12:18:57.561Z,937.35
2022-11-17T12:21:57.154Z,937.43
2022-11-17T12:24:56.994Z,937.42
2022-11-17T12:27:57.245Z,937.3
2022-11-17T12:30:57.280Z,937.43
2022-11-17T12:33:57.335Z,937.44
2022-11-17T12:36:57.239Z,937.49
2022-11-17T12:39:56.892Z,937.54
2022-11-17T12:42:57.471Z,937.44
2022-11-17T12:45:58.202Z,937.45
2022-11-17T12:48:57.345Z,937.51
2022-11-17T12:51:56.930Z,937.49
2022-11-17T12:54:57.398Z,937.51
2022-11-17T12:57:57.827Z,937.46
2022-11-17T13:00:57.975Z,937.53
2022-11-17T13:03:57.369Z,937.6
2022-11-17T13:06:57.459Z,937.5
2022-11-17T13:09:57.381Z,937.58
2022-11-17T13:12:57.767Z,937.6
2022-11-17T13:15:57.750Z,937.58
2022-11-17T13:18:56.814Z,937.59
2022-11-17T13:21:57.571Z,937.57
2022-11-17T13:24:57.163Z,937.51
2022-11-17T13:28:03.039Z,937.54
2022-11-17T13:30:58.207Z,937.58
2022-11-17T13:33:57.597Z,937.61
2022-11-17T13:36:57.327Z,937.59
2022-11-17T13:39:57.784Z,937.57
2022-11-17T13:42:57.599Z,937.54
2022-11-17T13:45:57.733Z,937.52
2022-11-17T13:48:57.917Z,937.59
2022-11-17T13:51:57.758Z,937.52
2022-11-17T13:54:57.596Z,937.6
2022-11-17T13:57:57.450Z,937.6
2022-11-17T14:00:57.809Z,937.65
2022-11-17T14:03:57.800Z,937.57
2022-11-17T14:06:57.539Z,937.56
2022-11-17T14:09:57.322Z,937.64
2022-11-17T14:12:58.346Z,937.65
2022-11-17T14:15:58.223Z,937.82
2022-11-17T14:18:57.501Z,937.75
2022-11-17T14:21:58.096Z,937.72
2022-11-17T14:24:57.186Z,937.75
2022-11-17T14:27:57.163Z,937.68
2022-11-17T14:30:57.311Z,937.72
2022-11-17T14:33:57.807Z,937.67
2022-11-17T14:36:57.366Z,937.7
2022-11-17T14:39:57.400Z,937.64
2022-11-17T14:42:57.053Z,937.62
2022-11-17T14:45:57.930Z,937.68
2022-11-17T14:48:57.518Z,937.53
2022-11-17T14:51:57.939Z,937.63
2022-11-17T14:54:58.248Z,937.49
2022-11-17T14:57:57.487Z,937.54
2022-11-17T15:00:57.445Z,937.51
2022-11-17T15:03:57.823Z,937.51
2022-11-17T15:06:57.331Z,937.47
2022-11-17T15:09:56.878Z,937.52
2022-11-17T15:12:57.272Z,937.59
2022-11-17T15:15:57.627Z,937.51
2022-11-17T15:18:57.305Z,937.51
2022-11-17T15:21:57.878Z,937.46
2022-11-17T15:24:56.729Z,937.54
2022-11-17T15:27:56.900Z,937.45
2022-11-17T15:30:57.550Z,937.44
2022-11-17T15:33:57.983Z,937.58
2022-11-17T15:36:57.260Z,937.56
2022-11-17T15:39:57.820Z,937.56
2022-11-17T15:42:57.641Z,937.6
2022-11-17T15:45:58.098Z,937.49
2022-11-17T15:48:57.238Z,937.57
2022-11-17T15:51:57.133Z,937.68
2022-11-17T15:54:57.707Z,937.66
2022-11-17T15:57:58.055Z,937.65
2022-11-17T16:00:58.486Z,937.68
2022-11-17T16:03:58.446Z,937.68
2022-11-17T16:06:57.989Z,937.67
2022-11-17T16:09:57.995Z,937.66
2022-11-17T16:12:57.655Z,937.6
2022-11-17T16:15:58.499Z,937.6
2022-11-17T16:18:57.154Z,937.74
2022-11-17T16:21:57.573Z,937.69
2022-11-17T16:24:57.335Z,937.65
2022-11-17T16:27:57.617Z,937.7
2022-11-17T16:30:58.261Z,937.7
2022-11-17T16:33:57.206Z,937.71
2022-11-17T16:36:57.083Z,937.69
2022-11-17T16:39:57.740Z,937.67
2022-11-17T16:42:57.789Z,937.62
2022-11-17T16:45:57.379Z,937.58
2022-11-17T16:48:57.632Z,937.64
2022-11-17T16:51:57.198Z,937.62
2022-11-17T16:55:03.250Z,937.59
2022-11-17T16:57:57.917Z,937.61
2022-11-17T17:00:58.497Z,937.53
2022-11-17T17:03:58.156Z,937.51
2022-11-17T17:06:57.322Z,937.51
2022-11-17T17:09:57.412Z,937.4
2022-11-17T17:12:57.071Z,937.53
2022-11-17T17:15:57.326Z,937.47
2022-11-17T17:18:57.070Z,937.5
2022-11-17T17:21:57.613Z,937.49
2022-11-17T17:24:57.195Z,937.47
2022-11-17T17:27:57.325Z,937.49
2022-11-17T17:30:57.654Z,937.5
2022-11-17T17:33:56.992Z,937.59
2022-11-17T17:36:57.054Z,937.64
2022-11-17T17:39:57.266Z,937.51
2022-11-17T17:42:57.528Z,937.4
2022-11-17T17:45:57.364Z,937.5
2022-11-17T17:48:57.379Z,937.41
2022-11-17T17:51:56.783Z,937.4
2022-11-17T17:54:56.876Z,937.32
2022-11-17T17:57:57.311Z,937.31
2022-11-17T18:01:25.310Z,937.45
2022-11-17T18:03:56.876Z,937.48
2022-11-17T18:06:57.502Z,937.44
2022-11-17T18:09:57.853Z,937.53
2022-11-17T18:12:56.670Z,937.58
2022-11-17T18:15:58.184Z,937.57
2022-11-17T18:18:57.469Z,937.57
2022-11-17T18:21:57.070Z,937.53
2022-11-17T18:24:58.431Z,937.63
2022-11-17T18:27:57.895Z,937.63
2022-11-17T18:30:57.687Z,937.57
2022-11-17T18:33:57.592Z,937.62
2022-11-17T18:36:57.869Z,937.58
2022-11-17T18:39:57.698Z,937.58
2022-11-17T18:42:57.199Z,937.66
2022-11-17T18:45:57.269Z,937.6
2022-11-17T18:48:57.263Z,937.59
2022-11-17T18:51:57.706Z,937.5
2022-11-17T18:54:56.813Z,937.44
2022-11-17T18:57:57.144Z,937.49
2022-11-17T19:00:58.181Z,937.46
2022-11-17T19:03:57.480Z,937.5
2022-11-17T19:06:57.389Z,937.51
2022-11-17T19:09:57.435Z,937.45
2022-11-17T19:12:57.515Z,937.44
2022-11-17T19:15:57.351Z,937.53
2022-11-17T19:18:57.188Z,937.69
2022-11-17T19:21:57.723Z,937.58
2022-11-17T19:24:57.027Z,937.65
2022-11-17T19:27:57.597Z,937.7
2022-11-17T19:30:58.338Z,937.81
2022-11-17T19:33:57.071Z,937.78
2022-11-17T19:36:57.863Z,937.79
2022-11-17T19:39:57.969Z,937.73
2022-11-17T19:42:57.871Z,937.79
2022-11-17T19:45:56.934Z,937.79
2022-11-17T19:48:57.138Z,937.85
2022-11-17T19:51:57.266Z,937.84
2022-11-17T19:54:57.333Z,937.82
2022-11-17T19:57:57.865Z,937.88
2022-11-17T20:00:57.897Z,937.89
2022-11-17T20:03:56.788Z,937.94
2022-11-17T20:06:57.604Z,938.01
2022-11-17T20:09:57.174Z,938.0
2022-11-17T20:12:57.446Z,938.07
2022-11-17T20:15:57.555Z,938.07
2022-11-17T20:18:57.677Z,938.06
2022-11-17T20:21:57.405Z,938.14
2022-11-17T20:25:02.024Z,938.15
2022-11-17T20:27:58.018Z,938.16
2022-11-17T20:30:57.718Z,938.33
2022-11-17T20:33:57.599Z,938.35
2022-11-17T20:36:58.174Z,938.31
2022-11-17T20:39:58.203Z,938.35
2022-11-17T20:42:57.998Z,938.39
2022-11-17T20:45:59.943Z,938.39
2022-11-17T20:48:57.323Z,938.36
2022-11-17T20:51:57.280Z,938.44
2022-11-17T20:54:57.399Z,938.41
2022-11-17T20:57:57.883Z,938.35
2022-11-17T21:00:58.131Z,938.45
2022-11-17T21:03:57.045Z,938.47
2022-11-17T21:06:57.785Z,938.5
2022-11-17T21:09:58.285Z,938.59
2022-11-17T21:12:57.594Z,938.62
2022-11-17T21:15:57.693Z,938.63
2022-11-17T21:18:57.258Z,938.66
2022-11-17T21:21:57.528Z,938.46
2022-11-17T21:24:57.463Z,938.56
2022-11-17T21:27:58.201Z,938.57
2022-11-17T21:30:57.929Z,938.59
2022-11-17T21:33:57.691Z,938.55
2022-11-17T21:36:57.164Z,938.64
2022-11-17T21:39:57.592Z,938.73
2022-11-17T21:42:57.068Z,938.91
2022-11-17T21:45:58.098Z,938.85
2022-11-17T21:48:57.378Z,938.8
2022-11-17T21:51:57.563Z,938.79
2022-11-17T21:54:57.486Z,938.81
2022-11-17T21:57:57.771Z,938.62
2022-11-17T22:00:57.987Z,938.73
2022-11-17T22:03:57.230Z,938.83
2022-11-17T22:06:57.814Z,938.78
2022-11-17T22:09:57.369Z,938.75
2022-11-17T22:12:57.748Z,938.87
2022-11-17T22:15:57.876Z,938.78
2022-11-17T22:18:57.073Z,938.63
2022-11-17T22:21:57.026Z,938.74
2022-11-17T22:24:57.168Z,938.69
2022-11-17T22:27:57.529Z,938.67
2022-11-17T22:30:58.170Z,938.69
2022-11-17T22:33:56.877Z,938.8
2022-11-17T22:36:57.176Z,938.76
2022-11-17T22:39:57.512Z,938.79
2022-11-17T22:43:00.017Z,938.8
2022-11-17T22:45:57.300Z,939.0
2022-11-17T22:48:57.337Z,939.03
2022-11-17T22:51:57.918Z,939.1
2022-11-17T22:54:57.750Z,939.21
2022-11-17T22:57:57.984Z,939.1
2022-11-17T23:00:58.194Z,939.25
2022-11-17T23:03:57.796Z,939.19
2022-11-17T23:06:57.181Z,939.21
2022-11-17T23:09:57.071Z,939.27
2022-11-17T23:12:56.889Z,939.23
2022-11-17T23:15:58.038Z,939.27
2022-11-17T23:18:56.968Z,939.15
2022-11-17T23:21:57.743Z,939.2
2022-11-17T23:24:57.528Z,939.22
2022-11-17T23:27:57.070Z,939.16
2022-11-17T23:30:57.258Z,939.11
2022-11-17T23:33:57.978Z,939.04
2022-11-17T23:37:03.312Z,938.96
2022-11-17T23:39:57.001Z,938.89
2022-11-17T23:42:57.146Z,938.82
2022-11-17T23:45:57.347Z,938.7
2022-11-17T23:48:57.480Z,938.55
2022-11-17T23:51:57.108Z,938.49
2022-11-17T23:54:57.235Z,938.41
2022-11-17T23:57:57.280Z,938.21
